Map

Track Data

SID SEASON NUMBER BASIN SUBBASIN NAME ISO_TIME NATURE LAT LON WMO_WIND WMO_PRES WMO_AGENCY TRACK_TYPE DIST2LAND LANDFALL IFLAG USA_AGENCY USA_ATCF_ID USA_LAT USA_LON USA_RECORD USA_STATUS USA_WIND USA_PRES USA_SSHS USA_R34_NE USA_R34_SE USA_R34_SW USA_R34_NW USA_R50_NE USA_R50_SE USA_R50_SW USA_R50_NW USA_R64_NE USA_R64_SE USA_R64_SW USA_R64_NW USA_POCI USA_ROCI USA_RMW USA_EYE TOKYO_LAT TOKYO_LON TOKYO_GRADE TOKYO_WIND TOKYO_PRES TOKYO_R50_DIR TOKYO_R50_LONG TOKYO_R50_SHORT TOKYO_R30_DIR TOKYO_R30_LONG TOKYO_R30_SHORT TOKYO_LAND CMA_LAT CMA_LON CMA_CAT CMA_WIND CMA_PRES HKO_LAT HKO_LON HKO_CAT HKO_WIND HKO_PRES NEWDELHI_LAT NEWDELHI_LON NEWDELHI_GRADE NEWDELHI_WIND NEWDELHI_PRES NEWDELHI_CI NEWDELHI_DP NEWDELHI_POCI REUNION_LAT REUNION_LON REUNION_TYPE REUNION_WIND REUNION_PRES REUNION_TNUM REUNION_CI REUNION_RMW REUNION_R34_NE REUNION_R34_SE REUNION_R34_SW REUNION_R34_NW REUNION_R50_NE REUNION_R50_SE REUNION_R50_SW REUNION_R50_NW REUNION_R64_NE REUNION_R64_SE REUNION_R64_SW REUNION_R64_NW BOM_LAT BOM_LON BOM_TYPE BOM_WIND BOM_PRES BOM_TNUM BOM_CI BOM_RMW BOM_R34_NE BOM_R34_SE BOM_R34_SW BOM_R34_NW BOM_R50_NE BOM_R50_SE BOM_R50_SW BOM_R50_NW BOM_R64_NE BOM_R64_SE BOM_R64_SW BOM_R64_NW BOM_ROCI BOM_POCI BOM_EYE BOM_POS_METHOD BOM_PRES_METHOD NADI_LAT NADI_LON NADI_CAT NADI_WIND NADI_PRES WELLINGTON_LAT WELLINGTON_LON WELLINGTON_WIND WELLINGTON_PRES DS824_LAT DS824_LON DS824_STAGE DS824_WIND DS824_PRES TD9636_LAT TD9636_LON TD9636_STAGE TD9636_WIND TD9636_PRES TD9635_LAT TD9635_LON TD9635_WIND TD9635_PRES TD9635_ROCI NEUMANN_LAT NEUMANN_LON NEUMANN_CLASS NEUMANN_WIND NEUMANN_PRES MLC_LAT MLC_LON MLC_CLASS MLC_WIND MLC_PRES USA_GUST BOM_GUST BOM_GUST_PER REUNION_GUST REUNION_GUST_PER USA_SEAHGT USA_SEARAD_NE USA_SEARAD_SE USA_SEARAD_SW USA_SEARAD_NW STORM_SPEED STORM_DIR
1925349N08146 1925 64 WP MM NOT_NAMED 1925-12-14 22:00:00 NR 7.90000 146.200 main 1121 1112 __________O___ -1 7.90000 146.200 4 13 259
1925349N08146 1925 64 WP MM NOT_NAMED 1925-12-15 00:00:00 NR 7.81765 145.781 main 1112 1106 __________P___ -1 7.81765 145.781 4 13 259
1925349N08146 1925 64 WP MM NOT_NAMED 1925-12-15 03:00:00 NR 7.69959 145.153 main 1109 1105 __________P___ -1 7.69959 145.153 4 13 260
1925349N08146 1925 64 WP MM NOT_NAMED 1925-12-15 06:00:00 NR 7.59674 144.528 main 1111 1108 __________P___ -1 7.59674 144.528 4 13 262
1925349N08146 1925 64 WP MM NOT_NAMED 1925-12-15 09:00:00 NR 7.51878 143.906 main 1116 1116 __________P___ -1 7.51878 143.906 4 12 263
1925349N08146 1925 64 WP MM NOT_NAMED 1925-12-15 10:00:00 NR 7.50000 143.700 main 1122 1122 __________O___ -1 7.50000 143.700 4 12 266
1925349N08146 1925 64 WP MM NOT_NAMED 1925-12-15 12:00:00 NR 7.47444 143.290 main 1136 1132 __________P___ -1 7.47444 143.290 4 12 268
1925349N08146 1925 64 WP MM NOT_NAMED 1925-12-15 15:00:00 NR 7.46140 142.686 main 1132 1107 __________P___ -1 7.46140 142.686 4 12 270
1925349N08146 1925 64 WP MM NOT_NAMED 1925-12-15 18:00:00 NR 7.47030 142.109 main 1107 1087 __________P___ -1 7.47030 142.109 4 11 272
1925349N08146 1925 64 WP MM NOT_NAMED 1925-12-15 21:00:00 NR 7.49171 141.569 main 1087 1079 __________P___ -1 7.49171 141.569 4 11 272
1925349N08146 1925 64 WP MM NOT_NAMED 1925-12-15 22:00:00 NR 7.50000 141.400 main 1079 1069 __________O___ -1 7.50000 141.400 4 10 271
1925349N08146 1925 64 WP MM NOT_NAMED 1925-12-16 00:00:00 NR 7.50023 141.077 main 1069 1053 __________P___ -1 7.50023 141.077 4 9 271
1925349N08146 1925 64 WP MM NOT_NAMED 1925-12-16 03:00:00 NR 7.50686 140.631 main 1053 1043 __________P___ -1 7.50686 140.631 4 9 272
1925349N08146 1925 64 WP MM NOT_NAMED 1925-12-16 06:00:00 NR 7.52933 140.218 main 1043 1035 __________P___ -1 7.52933 140.218 4 8 275
1925349N08146 1925 64 WP MM NOT_NAMED 1925-12-16 09:00:00 NR 7.57694 139.828 main 1036 1031 __________P___ -1 7.57694 139.828 4 8 278
1925349N08146 1925 64 WP MM NOT_NAMED 1925-12-16 10:00:00 NR 7.60000 139.700 main 1031 1022 __________O___ -1 7.60000 139.700 4 8 282
1925349N08146 1925 64 WP MM NOT_NAMED 1925-12-16 12:00:00 NR 7.65780 139.431 main 1028 1016 __________P___ -1 7.65780 139.431 4 8 285
1925349N08146 1925 64 WP MM NOT_NAMED 1925-12-16 15:00:00 NR 7.76974 139.039 main 1023 1016 __________P___ -1 7.76974 139.039 4 8 288
1925349N08146 1925 64 WP MM NOT_NAMED 1925-12-16 18:00:00 NR 7.90362 138.665 main 1023 1019 __________P___ -1 7.90362 138.665 4 8 291
1925349N08146 1925 64 WP MM NOT_NAMED 1925-12-16 21:00:00 NR 8.05004 138.312 main 1030 1027 __________P___ -1 8.05004 138.312 4 8 293
1925349N08146 1925 64 WP MM NOT_NAMED 1925-12-16 22:00:00 NR 8.10000 138.200 main 1027 1024 __________O___ -1 8.10000 138.200 4 7 293
1925349N08146 1925 64 WP MM NOT_NAMED 1925-12-17 00:00:00 NR 8.18631 137.983 main 1032 1026 __________P___ -1 8.18631 137.983 4 7 293
1925349N08146 1925 64 WP MM NOT_NAMED 1925-12-17 03:00:00 NR 8.32199 137.676 main 1035 1032 __________P___ -1 8.32199 137.676 4 7 296
1925349N08146 1925 64 WP MM NOT_NAMED 1925-12-17 06:00:00 NR 8.47070 137.384 main 1050 1048 __________P___ -1 8.47070 137.384 4 7 299
1925349N08146 1925 64 WP MM NOT_NAMED 1925-12-17 09:00:00 NR 8.63866 137.096 main 1055 1055 __________P___ -1 8.63866 137.096 4 7 301
1925349N08146 1925 64 WP MM NOT_NAMED 1925-12-17 10:00:00 NR 8.70000 137.000 main 1064 1063 __________O___ -1 8.70000 137.000 4 7 304
1925349N08146 1925 64 WP MM NOT_NAMED 1925-12-17 12:00:00 NR 8.83811 136.792 main 1072 1081 __________P___ -1 8.83811 136.792 4 8 305
1925349N08146 1925 64 WP MM NOT_NAMED 1925-12-17 15:00:00 NR 9.06433 136.480 main 1101 1070 __________P___ -1 9.06433 136.480 4 8 307
1925349N08146 1925 64 WP MM NOT_NAMED 1925-12-17 18:00:00 NR 9.29952 136.176 main 1071 1043 __________P___ -1 9.29952 136.176 4 7 309
1925349N08146 1925 64 WP MM NOT_NAMED 1925-12-17 21:00:00 NR 9.52802 135.890 main 1043 1034 __________P___ -1 9.52802 135.890 4 7 309
1925349N08146 1925 64 WP MM NOT_NAMED 1925-12-17 22:00:00 NR 9.60000 135.800 main 1034 1015 __________O___ -1 9.60000 135.800 4 6 307
1925349N08146 1925 64 WP MM NOT_NAMED 1925-12-18 00:00:00 NR 9.72276 135.630 main 1015 998 __________P___ -1 9.72276 135.630 4 6 306
1925349N08146 1925 64 WP MM NOT_NAMED 1925-12-18 03:00:00 NR 9.89423 135.394 main 998 980 __________P___ -1 9.89423 135.394 4 6 307
1925349N08146 1925 64 WP MM NOT_NAMED 1925-12-18 06:00:00 NR 10.0616 135.176 main 982 964 __________P___ -1 10.0616 135.176 4 5 309
1925349N08146 1925 64 WP MM NOT_NAMED 1925-12-18 09:00:00 NR 10.2374 134.968 main 964 957 __________P___ -1 10.2374 134.968 4 5 311
1925349N08146 1925 64 WP MM NOT_NAMED 1925-12-18 10:00:00 NR 10.3000 134.900 main 957 949 __________O___ -1 10.3000 134.900 4 6 314
1925349N08146 1925 64 WP MM NOT_NAMED 1925-12-18 12:00:00 NR 10.4412 134.758 main 949 932 __________P___ -1 10.4412 134.758 4 6 317
1925349N08146 1925 64 WP MM NOT_NAMED 1925-12-18 15:00:00 NR 10.6656 134.552 main 934 916 __________P___ -1 10.6656 134.552 4 6 319
1925349N08146 1925 64 WP MM NOT_NAMED 1925-12-18 18:00:00 NR 10.8970 134.353 main 918 899 __________P___ -1 10.8970 134.353 4 6 320
1925349N08146 1925 64 WP MM NOT_NAMED 1925-12-18 21:00:00 NR 11.1259 134.162 main 901 893 __________P___ -1 11.1259 134.162 4 6 321
1925349N08146 1925 64 WP MM NOT_NAMED 1925-12-18 22:00:00 NR 11.2000 134.100 main 893 885 __________O___ -1 11.2000 134.100 4 6 320
1925349N08146 1925 64 WP MM NOT_NAMED 1925-12-19 00:00:00 NR 11.3390 133.980 main 885 870 __________P___ -1 11.3390 133.980 4 5 320
1925349N08146 1925 64 WP MM NOT_NAMED 1925-12-19 03:00:00 NR 11.5412 133.807 main 870 854 __________P___ -1 11.5412 133.807 4 5 320
1925349N08146 1925 64 WP MM NOT_NAMED 1925-12-19 06:00:00 NR 11.7387 133.636 main 854 844 __________P___ -1 11.7387 133.636 4 5 319
1925349N08146 1925 64 WP MM NOT_NAMED 1925-12-19 09:00:00 NR 11.9345 133.460 main 845 836 __________P___ -1 11.9345 133.460 4 5 318
1925349N08146 1925 64 WP MM NOT_NAMED 1925-12-19 10:00:00 NR 12.0000 133.400 main 836 826 __________O___ -1 12.0000 133.400 4 5 317
1925349N08146 1925 64 WP MM NOT_NAMED 1925-12-19 12:00:00 NR 12.1281 133.275 main 826 808 __________P___ -1 12.1281 133.275 4 5 316
1925349N08146 1925 64 WP MM NOT_NAMED 1925-12-19 15:00:00 NR 12.3200 133.081 main 808 791 __________P___ -1 12.3200 133.081 4 6 315
1925349N08146 1925 64 WP MM NOT_NAMED 1925-12-19 18:00:00 NR 12.5175 132.880 main 791 775 __________P___ -1 12.5175 132.880 4 6 315
1925349N08146 1925 64 WP MM NOT_NAMED 1925-12-19 21:00:00 NR 12.7266 132.671 main 775 767 __________P___ -1 12.7266 132.671 4 6 316
1925349N08146 1925 64 WP MM NOT_NAMED 1925-12-19 22:00:00 NR 12.8000 132.600 main 767 752 __________O___ -1 12.8000 132.600 4 6 316
1925349N08146 1925 64 WP MM NOT_NAMED 1925-12-20 00:00:00 NR 12.9500 132.448 main 752 735 __________P___ -1 12.9500 132.448 4 7 316
1925349N08146 1925 64 WP MM NOT_NAMED 1925-12-20 03:00:00 NR 13.1876 132.213 main 735 717 __________P___ -1 13.1876 132.213 4 7 317
1925349N08146 1925 64 WP MM NOT_NAMED 1925-12-20 06:00:00 NR 13.4401 131.982 main 717 700 __________P___ -1 13.4401 131.982 4 7 320
1925349N08146 1925 64 WP MM NOT_NAMED 1925-12-20 09:00:00 NR 13.7075 131.766 main 703 692 __________P___ -1 13.7075 131.766 4 7 323
1925349N08146 1925 64 WP MM NOT_NAMED 1925-12-20 10:00:00 NR 13.8000 131.700 main 695 687 __________O___ -1 13.8000 131.700 4 7 327
1925349N08146 1925 64 WP MM NOT_NAMED 1925-12-20 12:00:00 NR 13.9898 131.578 main 691 677 __________P___ -1 13.9898 131.578 4 7 331
1925349N08146 1925 64 WP MM NOT_NAMED 1925-12-20 15:00:00 NR 14.2846 131.417 main 680 674 __________P___ -1 14.2846 131.417 4 7 334
1925349N08146 1925 64 WP MM NOT_NAMED 1925-12-20 18:00:00 NR 14.5881 131.275 main 682 676 __________P___ -1 14.5881 131.275 4 7 337
1925349N08146 1925 64 WP MM NOT_NAMED 1925-12-20 21:00:00 NR 14.8967 131.143 main 676 676 __________P___ -1 14.8967 131.143 4 7 338
1925349N08146 1925 64 WP MM NOT_NAMED 1925-12-20 22:00:00 NR 15.0000 131.100 main 681 __________O___ -1 15.0000 131.100 4 7 337

Digital Typhoon Data and Search

About IBTrACS Database

This database is a web-friendly format of International Best Track Archive for Climate Stewardship (IBTrACS), a global best track data archive curated by NOAA dating back to 1842.

Updated: 2021-10-25